sensor_id;sensor_type;location;lat;lon;timestamp;pressure;altitude;pressure_sealevel;temperature;humidity
34065;BME280;20339;49.754;20.158;2022-11-23T00:01:36;95521.84;;;-1.02;99.13
34065;BME280;20339;49.754;20.158;2022-11-23T00:04:10;95520.09;;;-0.94;99.23
34065;BME280;20339;49.754;20.158;2022-11-23T00:06:42;95517.98;;;-0.89;99.45
34065;BME280;20339;49.754;20.158;2022-11-23T00:09:15;95517.38;;;-0.87;99.24
34065;BME280;20339;49.754;20.158;2022-11-23T00:11:46;95513.78;;;-0.87;99.11
34065;BME280;20339;49.754;20.158;2022-11-23T00:14:17;95514.20;;;-0.87;99.16
34065;BME280;20339;49.754;20.158;2022-11-23T00:16:48;95512.98;;;-0.86;99.03
34065;BME280;20339;49.754;20.158;2022-11-23T00:19:19;95509.98;;;-0.82;99.31
34065;BME280;20339;49.754;20.158;2022-11-23T00:21:53;95510.16;;;-0.78;99.18
34065;BME280;20339;49.754;20.158;2022-11-23T00:24:24;95504.70;;;-0.69;99.70
34065;BME280;20339;49.754;20.158;2022-11-23T00:26:55;95508.35;;;-0.66;99.43
34065;BME280;20339;49.754;20.158;2022-11-23T00:29:26;95512.09;;;-0.66;99.24
34065;BME280;20339;49.754;20.158;2022-11-23T00:31:57;95516.55;;;-0.67;99.18
34065;BME280;20339;49.754;20.158;2022-11-23T00:34:28;95525.02;;;-0.68;98.98
34065;BME280;20339;49.754;20.158;2022-11-23T00:37:00;95526.96;;;-0.67;98.97
34065;BME280;20339;49.754;20.158;2022-11-23T00:39:31;95529.52;;;-0.64;99.37
34065;BME280;20339;49.754;20.158;2022-11-23T00:42:02;95529.91;;;-0.62;99.51
34065;BME280;20339;49.754;20.158;2022-11-23T00:44:34;95531.05;;;-0.56;99.20
34065;BME280;20339;49.754;20.158;2022-11-23T00:47:05;95525.85;;;-0.53;99.14
34065;BME280;20339;49.754;20.158;2022-11-23T00:49:37;95528.80;;;-0.54;98.73
34065;BME280;20339;49.754;20.158;2022-11-23T00:52:09;95524.11;;;-0.54;99.01
34065;BME280;20339;49.754;20.158;2022-11-23T00:54:40;95522.41;;;-0.53;98.71
34065;BME280;20339;49.754;20.158;2022-11-23T00:57:11;95520.73;;;-0.53;98.52
34065;BME280;20339;49.754;20.158;2022-11-23T00:59:42;95523.02;;;-0.53;98.60
34065;BME280;20339;49.754;20.158;2022-11-23T01:02:15;95528.48;;;-0.54;98.34
34065;BME280;20339;49.754;20.158;2022-11-23T01:04:47;95529.55;;;-0.65;97.97
34065;BME280;20339;49.754;20.158;2022-11-23T01:07:20;95538.72;;;-0.70;98.03
34065;BME280;20339;49.754;20.158;2022-11-23T01:09:51;95538.29;;;-0.68;98.45
34065;BME280;20339;49.754;20.158;2022-11-23T01:12:23;95539.04;;;-0.67;98.60
34065;BME280;20339;49.754;20.158;2022-11-23T01:14:54;95535.84;;;-0.65;98.56
34065;BME280;20339;49.754;20.158;2022-11-23T01:17:25;95538.67;;;-0.63;98.70
34065;BME280;20339;49.754;20.158;2022-11-23T01:19:57;95538.75;;;-0.62;98.47
34065;BME280;20339;49.754;20.158;2022-11-23T01:22:28;95536.90;;;-0.61;98.49
34065;BME280;20339;49.754;20.158;2022-11-23T01:24:59;95537.09;;;-0.58;98.60
34065;BME280;20339;49.754;20.158;2022-11-23T01:27:31;95535.23;;;-0.57;98.43
34065;BME280;20339;49.754;20.158;2022-11-23T01:30:04;95538.31;;;-0.55;98.43
34065;BME280;20339;49.754;20.158;2022-11-23T01:32:35;95538.00;;;-0.55;98.59
34065;BME280;20339;49.754;20.158;2022-11-23T01:35:08;95535.14;;;-0.54;98.71
34065;BME280;20339;49.754;20.158;2022-11-23T01:37:39;95536.25;;;-0.54;98.51
34065;BME280;20339;49.754;20.158;2022-11-23T01:40:12;95530.67;;;-0.54;98.48
34065;BME280;20339;49.754;20.158;2022-11-23T01:42:51;95521.52;;;-0.54;98.31
34065;BME280;20339;49.754;20.158;2022-11-23T01:45:39;95522.28;;;-0.54;98.37
34065;BME280;20339;49.754;20.158;2022-11-23T01:48:15;95517.79;;;-0.55;98.25
34065;BME280;20339;49.754;20.158;2022-11-23T01:50:50;95517.95;;;-0.56;98.29
34065;BME280;20339;49.754;20.158;2022-11-23T01:53:22;95524.60;;;-0.56;98.39
34065;BME280;20339;49.754;20.158;2022-11-23T01:55:56;95527.27;;;-0.56;98.25
34065;BME280;20339;49.754;20.158;2022-11-23T01:58:33;95525.10;;;-0.59;98.16
34065;BME280;20339;49.754;20.158;2022-11-23T02:01:07;95523.29;;;-0.62;98.41
34065;BME280;20339;49.754;20.158;2022-11-23T02:03:38;95516.05;;;-0.62;98.20
34065;BME280;20339;49.754;20.158;2022-11-23T02:06:13;95511.27;;;-0.61;98.73
34065;BME280;20339;49.754;20.158;2022-11-23T02:08:45;95508.96;;;-0.63;98.52
34065;BME280;20339;49.754;20.158;2022-11-23T02:11:17;95507.21;;;-0.65;98.49
34065;BME280;20339;49.754;20.158;2022-11-23T02:13:50;95511.98;;;-0.67;98.64
34065;BME280;20339;49.754;20.158;2022-11-23T02:16:21;95508.52;;;-0.68;98.72
34065;BME280;20339;49.754;20.158;2022-11-23T02:18:53;95505.59;;;-0.69;98.99
34065;BME280;20339;49.754;20.158;2022-11-23T02:21:25;95507.57;;;-0.71;98.78
34065;BME280;20339;49.754;20.158;2022-11-23T02:24:00;95506.05;;;-0.70;99.26
34065;BME280;20339;49.754;20.158;2022-11-23T02:26:36;95509.73;;;-0.68;99.22
34065;BME280;20339;49.754;20.158;2022-11-23T02:29:10;95504.29;;;-0.66;99.19
34065;BME280;20339;49.754;20.158;2022-11-23T02:31:43;95503.77;;;-0.65;99.79
34065;BME280;20339;49.754;20.158;2022-11-23T02:34:14;95505.13;;;-0.65;99.37
34065;BME280;20339;49.754;20.158;2022-11-23T02:36:47;95504.83;;;-0.68;99.23
34065;BME280;20339;49.754;20.158;2022-11-23T02:39:25;95499.84;;;-0.70;99.00
34065;BME280;20339;49.754;20.158;2022-11-23T02:42:00;95498.11;;;-0.76;98.84
34065;BME280;20339;49.754;20.158;2022-11-23T02:44:38;95501.12;;;-0.81;98.98
34065;BME280;20339;49.754;20.158;2022-11-23T02:47:12;95499.31;;;-0.85;98.96
34065;BME280;20339;49.754;20.158;2022-11-23T02:49:46;95496.67;;;-0.84;99.01
34065;BME280;20339;49.754;20.158;2022-11-23T02:52:18;95500.09;;;-0.83;99.12
34065;BME280;20339;49.754;20.158;2022-11-23T02:54:50;95493.72;;;-0.81;99.36
34065;BME280;20339;49.754;20.158;2022-11-23T02:57:21;95496.69;;;-0.78;99.45
34065;BME280;20339;49.754;20.158;2022-11-23T02:59:52;95495.47;;;-0.76;99.31
34065;BME280;20339;49.754;20.158;2022-11-23T03:02:24;95502.00;;;-0.74;99.08
34065;BME280;20339;49.754;20.158;2022-11-23T03:04:55;95499.77;;;-0.77;99.00
34065;BME280;20339;49.754;20.158;2022-11-23T03:07:26;95502.51;;;-0.84;98.91
34065;BME280;20339;49.754;20.158;2022-11-23T03:09:57;95501.52;;;-0.84;99.29
34065;BME280;20339;49.754;20.158;2022-11-23T03:12:28;95495.91;;;-0.82;99.59
34065;BME280;20339;49.754;20.158;2022-11-23T03:15:00;95496.34;;;-0.77;99.63
34065;BME280;20339;49.754;20.158;2022-11-23T03:17:31;95495.06;;;-0.72;99.68
34065;BME280;20339;49.754;20.158;2022-11-23T03:20:02;95500.10;;;-0.73;99.30
34065;BME280;20339;49.754;20.158;2022-11-23T03:22:34;95502.30;;;-0.84;98.95
34065;BME280;20339;49.754;20.158;2022-11-23T03:25:08;95503.16;;;-0.85;99.12
34065;BME280;20339;49.754;20.158;2022-11-23T03:27:40;95503.84;;;-0.88;98.77
34065;BME280;20339;49.754;20.158;2022-11-23T03:30:11;95506.58;;;-0.92;98.64
34065;BME280;20339;49.754;20.158;2022-11-23T03:32:42;95506.21;;;-0.92;98.82
34065;BME280;20339;49.754;20.158;2022-11-23T03:35:14;95507.55;;;-0.93;99.04
34065;BME280;20339;49.754;20.158;2022-11-23T03:37:48;95502.34;;;-0.91;99.08
34065;BME280;20339;49.754;20.158;2022-11-23T03:40:19;95498.56;;;-0.89;99.21
34065;BME280;20339;49.754;20.158;2022-11-23T03:42:50;95494.01;;;-0.87;99.08
34065;BME280;20339;49.754;20.158;2022-11-23T03:45:24;95491.95;;;-0.89;98.87
34065;BME280;20339;49.754;20.158;2022-11-23T03:47:55;95492.98;;;-0.89;99.15
34065;BME280;20339;49.754;20.158;2022-11-23T03:50:27;95495.92;;;-0.87;99.36
34065;BME280;20339;49.754;20.158;2022-11-23T03:52:58;95495.88;;;-0.85;99.15
34065;BME280;20339;49.754;20.158;2022-11-23T03:55:30;95502.80;;;-0.85;99.22
34065;BME280;20339;49.754;20.158;2022-11-23T03:58:02;95506.80;;;-0.85;99.10
34065;BME280;20339;49.754;20.158;2022-11-23T04:00:34;95504.96;;;-0.84;99.22
34065;BME280;20339;49.754;20.158;2022-11-23T04:03:06;95504.97;;;-0.85;98.92
34065;BME280;20339;49.754;20.158;2022-11-23T04:05:40;95501.31;;;-0.86;98.67
34065;BME280;20339;49.754;20.158;2022-11-23T04:08:11;95503.04;;;-0.85;99.12
34065;BME280;20339;49.754;20.158;2022-11-23T04:10:48;95504.52;;;-0.85;98.91
34065;BME280;20339;49.754;20.158;2022-11-23T04:13:19;95498.44;;;-0.91;98.87
34065;BME280;20339;49.754;20.158;2022-11-23T04:15:50;95497.90;;;-0.91;98.99
34065;BME280;20339;49.754;20.158;2022-11-23T04:18:22;95493.95;;;-0.88;99.26
34065;BME280;20339;49.754;20.158;2022-11-23T04:20:53;95490.60;;;-0.85;99.23
34065;BME280;20339;49.754;20.158;2022-11-23T04:23:24;95490.95;;;-0.84;99.39
34065;BME280;20339;49.754;20.158;2022-11-23T04:25:57;95488.10;;;-0.82;99.14
34065;BME280;20339;49.754;20.158;2022-11-23T04:28:28;95483.03;;;-0.79;99.36
34065;BME280;20339;49.754;20.158;2022-11-23T04:31:02;95481.24;;;-0.77;99.47
34065;BME280;20339;49.754;20.158;2022-11-23T04:33:33;95476.95;;;-0.76;99.03
34065;BME280;20339;49.754;20.158;2022-11-23T04:36:09;95473.70;;;-0.74;99.14
34065;BME280;20339;49.754;20.158;2022-11-23T04:38:43;95473.84;;;-0.71;99.24
34065;BME280;20339;49.754;20.158;2022-11-23T04:41:14;95478.79;;;-0.71;99.04
34065;BME280;20339;49.754;20.158;2022-11-23T04:43:47;95477.23;;;-0.71;98.90
34065;BME280;20339;49.754;20.158;2022-11-23T04:46:19;95484.66;;;-0.69;99.15
34065;BME280;20339;49.754;20.158;2022-11-23T04:48:51;95484.27;;;-0.68;99.09
34065;BME280;20339;49.754;20.158;2022-11-23T04:51:24;95484.23;;;-0.67;99.05
34065;BME280;20339;49.754;20.158;2022-11-23T04:53:55;95485.02;;;-0.67;99.27
34065;BME280;20339;49.754;20.158;2022-11-23T04:56:28;95491.30;;;-0.68;98.92
34065;BME280;20339;49.754;20.158;2022-11-23T04:59:00;95487.29;;;-0.73;98.92
34065;BME280;20339;49.754;20.158;2022-11-23T05:01:32;95478.61;;;-0.79;98.99
34065;BME280;20339;49.754;20.158;2022-11-23T05:04:03;95477.88;;;-0.80;98.83
34065;BME280;20339;49.754;20.158;2022-11-23T05:06:37;95479.08;;;-0.82;98.87
34065;BME280;20339;49.754;20.158;2022-11-23T05:09:08;95483.35;;;-0.96;98.68
34065;BME280;20339;49.754;20.158;2022-11-23T05:11:42;95482.73;;;-1.16;98.29
34065;BME280;20339;49.754;20.158;2022-11-23T05:14:14;95479.80;;;-1.28;98.58
34065;BME280;20339;49.754;20.158;2022-11-23T05:16:45;95480.79;;;-1.34;98.84
34065;BME280;20339;49.754;20.158;2022-11-23T05:19:16;95479.73;;;-1.39;99.00
34065;BME280;20339;49.754;20.158;2022-11-23T05:21:47;95483.48;;;-1.41;98.95
34065;BME280;20339;49.754;20.158;2022-11-23T05:24:21;95492.24;;;-1.53;98.88
34065;BME280;20339;49.754;20.158;2022-11-23T05:26:52;95498.33;;;-1.69;98.64
34065;BME280;20339;49.754;20.158;2022-11-23T05:29:24;95504.66;;;-1.76;99.16
34065;BME280;20339;49.754;20.158;2022-11-23T05:31:56;95512.14;;;-1.76;99.35
34065;BME280;20339;49.754;20.158;2022-11-23T05:34:27;95511.00;;;-1.73;99.53
34065;BME280;20339;49.754;20.158;2022-11-23T05:36:58;95514.82;;;-1.68;99.67
34065;BME280;20339;49.754;20.158;2022-11-23T05:39:29;95514.33;;;-1.61;99.85
34065;BME280;20339;49.754;20.158;2022-11-23T05:42:01;95515.14;;;-1.57;99.76
34065;BME280;20339;49.754;20.158;2022-11-23T05:44:32;95512.58;;;-1.54;99.79
34065;BME280;20339;49.754;20.158;2022-11-23T05:47:03;95517.52;;;-1.49;100.00
34065;BME280;20339;49.754;20.158;2022-11-23T05:49:35;95520.95;;;-1.45;99.79
34065;BME280;20339;49.754;20.158;2022-11-23T05:52:07;95527.39;;;-1.45;99.85
34065;BME280;20339;49.754;20.158;2022-11-23T05:54:38;95533.79;;;-1.56;99.34
34065;BME280;20339;49.754;20.158;2022-11-23T05:57:09;95543.73;;;-1.60;99.53
34065;BME280;20339;49.754;20.158;2022-11-23T05:59:40;95544.52;;;-1.55;99.86
34065;BME280;20339;49.754;20.158;2022-11-23T06:02:11;95546.45;;;-1.49;99.86
34065;BME280;20339;49.754;20.158;2022-11-23T06:04:45;95542.17;;;-1.47;99.85
34065;BME280;20339;49.754;20.158;2022-11-23T06:07:16;95550.55;;;-1.44;99.84
34065;BME280;20339;49.754;20.158;2022-11-23T06:09:47;95551.49;;;-1.49;99.72
34065;BME280;20339;49.754;20.158;2022-11-23T06:12:18;95553.55;;;-1.57;99.82
34065;BME280;20339;49.754;20.158;2022-11-23T06:14:50;95553.11;;;-1.65;99.58
34065;BME280;20339;49.754;20.158;2022-11-23T06:17:21;95552.83;;;-1.71;99.59
34065;BME280;20339;49.754;20.158;2022-11-23T06:19:53;95550.37;;;-1.66;99.95
34065;BME280;20339;49.754;20.158;2022-11-23T06:22:25;95547.13;;;-1.58;99.99
34065;BME280;20339;49.754;20.158;2022-11-23T06:24:59;95549.75;;;-1.54;99.99
34065;BME280;20339;49.754;20.158;2022-11-23T06:27:30;95556.98;;;-1.59;99.95
34065;BME280;20339;49.754;20.158;2022-11-23T06:30:02;95563.84;;;-1.69;99.89
34065;BME280;20339;49.754;20.158;2022-11-23T06:32:34;95566.24;;;-1.76;99.97
34065;BME280;20339;49.754;20.158;2022-11-23T06:35:06;95570.80;;;-1.81;99.98
34065;BME280;20339;49.754;20.158;2022-11-23T06:37:37;95564.02;;;-1.87;100.00
34065;BME280;20339;49.754;20.158;2022-11-23T06:40:10;95559.44;;;-1.88;100.00
34065;BME280;20339;49.754;20.158;2022-11-23T06:42:42;95558.75;;;-1.85;100.00
34065;BME280;20339;49.754;20.158;2022-11-23T06:45:13;95554.31;;;-1.89;100.00
34065;BME280;20339;49.754;20.158;2022-11-23T06:47:44;95562.98;;;-1.96;100.00
34065;BME280;20339;49.754;20.158;2022-11-23T06:50:16;95561.62;;;-2.01;100.00
34065;BME280;20339;49.754;20.158;2022-11-23T06:52:48;95559.45;;;-2.05;100.00
34065;BME280;20339;49.754;20.158;2022-11-23T06:55:26;95559.48;;;-2.08;100.00
34065;BME280;20339;49.754;20.158;2022-11-23T06:57:58;95558.80;;;-2.13;100.00
34065;BME280;20339;49.754;20.158;2022-11-23T07:00:29;95558.24;;;-2.12;100.00
34065;BME280;20339;49.754;20.158;2022-11-23T07:03:01;95559.52;;;-2.06;100.00
34065;BME280;20339;49.754;20.158;2022-11-23T07:05:38;95558.23;;;-2.01;100.00
34065;BME280;20339;49.754;20.158;2022-11-23T07:08:10;95555.07;;;-2.01;100.00
34065;BME280;20339;49.754;20.158;2022-11-23T07:10:41;95554.84;;;-2.02;100.00
34065;BME280;20339;49.754;20.158;2022-11-23T07:13:13;95553.30;;;-2.01;100.00
34065;BME280;20339;49.754;20.158;2022-11-23T07:15:44;95554.58;;;-2.00;100.00
34065;BME280;20339;49.754;20.158;2022-11-23T07:18:16;95551.41;;;-2.02;100.00
34065;BME280;20339;49.754;20.158;2022-11-23T07:20:47;95552.30;;;-2.02;100.00
34065;BME280;20339;49.754;20.158;2022-11-23T07:23:18;95554.16;;;-2.00;100.00
34065;BME280;20339;49.754;20.158;2022-11-23T07:25:49;95558.20;;;-2.02;100.00
34065;BME280;20339;49.754;20.158;2022-11-23T07:28:21;95561.88;;;-2.06;100.00
34065;BME280;20339;49.754;20.158;2022-11-23T07:30:55;95550.64;;;-2.04;100.00
34065;BME280;20339;49.754;20.158;2022-11-23T07:33:26;95548.97;;;-1.99;100.00
34065;BME280;20339;49.754;20.158;2022-11-23T07:36:00;95548.07;;;-2.01;100.00
34065;BME280;20339;49.754;20.158;2022-11-23T07:38:32;95537.16;;;-2.00;100.00
34065;BME280;20339;49.754;20.158;2022-11-23T07:41:06;95538.56;;;-2.01;100.00
34065;BME280;20339;49.754;20.158;2022-11-23T07:43:37;95541.26;;;-2.04;100.00
34065;BME280;20339;49.754;20.158;2022-11-23T07:46:09;95540.21;;;-2.03;100.00
34065;BME280;20339;49.754;20.158;2022-11-23T07:48:42;95542.45;;;-2.03;100.00
34065;BME280;20339;49.754;20.158;2022-11-23T07:51:13;95549.83;;;-2.10;100.00
34065;BME280;20339;49.754;20.158;2022-11-23T07:53:48;95557.70;;;-2.18;100.00
34065;BME280;20339;49.754;20.158;2022-11-23T07:56:19;95556.42;;;-2.21;100.00
34065;BME280;20339;49.754;20.158;2022-11-23T07:58:51;95560.34;;;-2.16;100.00
34065;BME280;20339;49.754;20.158;2022-11-23T08:01:22;95559.77;;;-2.07;100.00
34065;BME280;20339;49.754;20.158;2022-11-23T08:03:53;95558.70;;;-2.01;100.00
34065;BME280;20339;49.754;20.158;2022-11-23T08:06:25;95555.88;;;-1.96;100.00
34065;BME280;20339;49.754;20.158;2022-11-23T08:08:59;95557.90;;;-1.91;100.00
34065;BME280;20339;49.754;20.158;2022-11-23T08:11:30;95552.15;;;-1.85;100.00
34065;BME280;20339;49.754;20.158;2022-11-23T08:14:01;95552.74;;;-1.81;100.00
34065;BME280;20339;49.754;20.158;2022-11-23T08:16:34;95550.95;;;-1.76;100.00
34065;BME280;20339;49.754;20.158;2022-11-23T08:19:05;95547.70;;;-1.72;100.00
34065;BME280;20339;49.754;20.158;2022-11-23T08:21:39;95557.63;;;-1.77;100.00
34065;BME280;20339;49.754;20.158;2022-11-23T08:24:10;95559.01;;;-1.88;100.00
34065;BME280;20339;49.754;20.158;2022-11-23T08:26:42;95552.44;;;-1.89;100.00
34065;BME280;20339;49.754;20.158;2022-11-23T08:29:14;95556.56;;;-1.86;100.00
34065;BME280;20339;49.754;20.158;2022-11-23T08:31:45;95559.02;;;-1.88;100.00
34065;BME280;20339;49.754;20.158;2022-11-23T08:34:17;95555.86;;;-1.87;100.00
34065;BME280;20339;49.754;20.158;2022-11-23T08:36:49;95557.05;;;-1.84;100.00
34065;BME280;20339;49.754;20.158;2022-11-23T08:39:20;95554.15;;;-1.85;100.00
34065;BME280;20339;49.754;20.158;2022-11-23T08:41:52;95553.23;;;-1.86;100.00
34065;BME280;20339;49.754;20.158;2022-11-23T08:44:23;95550.91;;;-1.84;100.00
34065;BME280;20339;49.754;20.158;2022-11-23T08:46:55;95550.98;;;-1.80;100.00
34065;BME280;20339;49.754;20.158;2022-11-23T08:49:26;95551.89;;;-1.76;100.00
34065;BME280;20339;49.754;20.158;2022-11-23T08:51:58;95547.36;;;-1.71;100.00
34065;BME280;20339;49.754;20.158;2022-11-23T08:54:29;95541.83;;;-1.66;100.00
34065;BME280;20339;49.754;20.158;2022-11-23T08:57:01;95545.55;;;-1.65;100.00
34065;BME280;20339;49.754;20.158;2022-11-23T08:59:32;95545.17;;;-1.68;100.00
34065;BME280;20339;49.754;20.158;2022-11-23T09:02:04;95546.23;;;-1.65;100.00
34065;BME280;20339;49.754;20.158;2022-11-23T09:04:35;95543.23;;;-1.64;100.00
34065;BME280;20339;49.754;20.158;2022-11-23T09:07:07;95538.48;;;-1.59;100.00
34065;BME280;20339;49.754;20.158;2022-11-23T09:09:38;95538.84;;;-1.55;100.00
34065;BME280;20339;49.754;20.158;2022-11-23T09:12:12;95541.73;;;-1.51;100.00
34065;BME280;20339;49.754;20.158;2022-11-23T09:14:43;95544.40;;;-1.48;100.00
34065;BME280;20339;49.754;20.158;2022-11-23T09:17:14;95540.29;;;-1.51;100.00
34065;BME280;20339;49.754;20.158;2022-11-23T09:19:45;95536.14;;;-1.47;100.00
34065;BME280;20339;49.754;20.158;2022-11-23T09:22:17;95535.33;;;-1.49;100.00
34065;BME280;20339;49.754;20.158;2022-11-23T09:24:50;95541.35;;;-1.47;100.00
34065;BME280;20339;49.754;20.158;2022-11-23T09:27:21;95537.58;;;-1.45;100.00
34065;BME280;20339;49.754;20.158;2022-11-23T09:29:53;95537.46;;;-1.43;100.00
34065;BME280;20339;49.754;20.158;2022-11-23T09:32:24;95537.29;;;-1.41;100.00
34065;BME280;20339;49.754;20.158;2022-11-23T09:34:56;95534.40;;;-1.46;100.00
34065;BME280;20339;49.754;20.158;2022-11-23T09:37:31;95528.74;;;-1.45;100.00
34065;BME280;20339;49.754;20.158;2022-11-23T09:40:05;95535.23;;;-1.43;100.00
34065;BME280;20339;49.754;20.158;2022-11-23T09:42:59;95532.38;;;-1.43;100.00
34065;BME280;20339;49.754;20.158;2022-11-23T09:45:38;95531.30;;;-1.40;100.00
34065;BME280;20339;49.754;20.158;2022-11-23T09:48:27;95533.78;;;-1.36;100.00
34065;BME280;20339;49.754;20.158;2022-11-23T09:51:08;95529.75;;;-1.34;100.00
34065;BME280;20339;49.754;20.158;2022-11-23T09:53:49;95524.83;;;-1.33;100.00
34065;BME280;20339;49.754;20.158;2022-11-23T09:56:25;95523.76;;;-1.29;100.00
34065;BME280;20339;49.754;20.158;2022-11-23T09:58:59;95523.80;;;-1.30;100.00
34065;BME280;20339;49.754;20.158;2022-11-23T10:01:32;95524.68;;;-1.30;100.00
34065;BME280;20339;49.754;20.158;2022-11-23T10:04:04;95518.46;;;-1.29;100.00
34065;BME280;20339;49.754;20.158;2022-11-23T10:06:40;95516.27;;;-1.27;100.00
34065;BME280;20339;49.754;20.158;2022-11-23T10:09:29;95514.72;;;-1.27;100.00
34065;BME280;20339;49.754;20.158;2022-11-23T10:12:19;95513.90;;;-1.24;100.00
34065;BME280;20339;49.754;20.158;2022-11-23T10:15:09;95518.54;;;-1.20;100.00
34065;BME280;20339;49.754;20.158;2022-11-23T10:17:55;95512.05;;;-1.22;100.00
34065;BME280;20339;49.754;20.158;2022-11-23T10:20:46;95515.69;;;-1.28;100.00
34065;BME280;20339;49.754;20.158;2022-11-23T10:23:20;95509.60;;;-1.23;100.00
34065;BME280;20339;49.754;20.158;2022-11-23T10:25:56;95504.61;;;-1.20;100.00
34065;BME280;20339;49.754;20.158;2022-11-23T10:28:30;95505.77;;;-1.16;100.00
34065;BME280;20339;49.754;20.158;2022-11-23T10:31:10;95503.37;;;-1.11;100.00
34065;BME280;20339;49.754;20.158;2022-11-23T10:33:51;95507.58;;;-1.09;100.00
34065;BME280;20339;49.754;20.158;2022-11-23T10:36:27;95506.39;;;-1.13;100.00
34065;BME280;20339;49.754;20.158;2022-11-23T10:38:59;95507.39;;;-1.10;100.00
34065;BME280;20339;49.754;20.158;2022-11-23T10:41:32;95504.39;;;-1.06;100.00
34065;BME280;20339;49.754;20.158;2022-11-23T10:44:06;95504.96;;;-1.03;100.00
34065;BME280;20339;49.754;20.158;2022-11-23T10:46:42;95497.18;;;-0.99;100.00
34065;BME280;20339;49.754;20.158;2022-11-23T10:49:20;95492.59;;;-0.95;100.00
34065;BME280;20339;49.754;20.158;2022-11-23T10:51:57;95493.30;;;-0.93;100.00
34065;BME280;20339;49.754;20.158;2022-11-23T10:54:31;95487.59;;;-0.92;100.00
34065;BME280;20339;49.754;20.158;2022-11-23T10:57:24;95484.14;;;-0.90;100.00
34065;BME280;20339;49.754;20.158;2022-11-23T11:00:02;95478.88;;;-0.87;100.00
34065;BME280;20339;49.754;20.158;2022-11-23T11:02:41;95487.11;;;-0.84;100.00
34065;BME280;20339;49.754;20.158;2022-11-23T11:05:23;95490.20;;;-0.83;100.00
34065;BME280;20339;49.754;20.158;2022-11-23T11:07:57;95491.41;;;-0.80;100.00
34065;BME280;20339;49.754;20.158;2022-11-23T11:10:40;95496.30;;;-0.78;100.00
34065;BME280;20339;49.754;20.158;2022-11-23T11:13:39;95491.08;;;-0.80;100.00
34065;BME280;20339;49.754;20.158;2022-11-23T11:16:21;95491.21;;;-0.75;100.00
34065;BME280;20339;49.754;20.158;2022-11-23T11:18:55;95485.63;;;-0.73;100.00
34065;BME280;20339;49.754;20.158;2022-11-23T11:21:31;95483.16;;;-0.71;100.00
34065;BME280;20339;49.754;20.158;2022-11-23T11:24:05;95482.73;;;-0.66;100.00
34065;BME280;20339;49.754;20.158;2022-11-23T11:26:48;95480.86;;;-0.63;100.00
34065;BME280;20339;49.754;20.158;2022-11-23T11:29:30;95478.67;;;-0.59;100.00
34065;BME280;20339;49.754;20.158;2022-11-23T11:32:07;95475.17;;;-0.54;100.00
34065;BME280;20339;49.754;20.158;2022-11-23T11:34:46;95471.13;;;-0.53;100.00
34065;BME280;20339;49.754;20.158;2022-11-23T11:37:25;95468.64;;;-0.53;100.00
34065;BME280;20339;49.754;20.158;2022-11-23T11:40:06;95474.98;;;-0.49;100.00
34065;BME280;20339;49.754;20.158;2022-11-23T11:42:42;95475.34;;;-0.46;100.00
34065;BME280;20339;49.754;20.158;2022-11-23T11:45:18;95476.25;;;-0.44;100.00
34065;BME280;20339;49.754;20.158;2022-11-23T11:47:56;95479.86;;;-0.42;100.00
34065;BME280;20339;49.754;20.158;2022-11-23T11:50:31;95484.89;;;-0.39;100.00
34065;BME280;20339;49.754;20.158;2022-11-23T11:53:09;95486.67;;;-0.39;100.00
34065;BME280;20339;49.754;20.158;2022-11-23T11:55:49;95485.25;;;-0.36;100.00
34065;BME280;20339;49.754;20.158;2022-11-23T11:58:23;95485.20;;;-0.36;100.00
34065;BME280;20339;49.754;20.158;2022-11-23T12:01:02;95483.49;;;-0.35;100.00
34065;BME280;20339;49.754;20.158;2022-11-23T12:03:42;95480.98;;;-0.33;100.00
34065;BME280;20339;49.754;20.158;2022-11-23T12:06:19;95474.55;;;-0.30;100.00
34065;BME280;20339;49.754;20.158;2022-11-23T12:09:05;95470.55;;;-0.27;100.00
34065;BME280;20339;49.754;20.158;2022-11-23T12:11:37;95472.49;;;-0.25;100.00
34065;BME280;20339;49.754;20.158;2022-11-23T12:14:13;95474.39;;;-0.24;100.00
34065;BME280;20339;49.754;20.158;2022-11-23T12:16:49;95474.84;;;-0.22;100.00
34065;BME280;20339;49.754;20.158;2022-11-23T12:19:29;95471.33;;;-0.19;100.00
34065;BME280;20339;49.754;20.158;2022-11-23T12:22:13;95469.27;;;-0.17;100.00
34065;BME280;20339;49.754;20.158;2022-11-23T12:25:18;95467.10;;;-0.16;100.00
34065;BME280;20339;49.754;20.158;2022-11-23T12:28:04;95465.66;;;-0.15;100.00
34065;BME280;20339;49.754;20.158;2022-11-23T12:30:52;95469.22;;;-0.17;100.00
34065;BME280;20339;49.754;20.158;2022-11-23T12:36:32;95475.24;;;-0.13;100.00
34065;BME280;20339;49.754;20.158;2022-11-23T12:39:17;95470.66;;;-0.13;100.00
34065;BME280;20339;49.754;20.158;2022-11-23T12:41:58;95470.05;;;-0.11;100.00
34065;BME280;20339;49.754;20.158;2022-11-23T12:44:49;95472.49;;;-0.11;100.00
34065;BME280;20339;49.754;20.158;2022-11-23T12:47:33;95473.70;;;-0.12;100.00
34065;BME280;20339;49.754;20.158;2022-11-23T12:50:19;95479.30;;;-0.14;100.00
34065;BME280;20339;49.754;20.158;2022-11-23T12:53:04;95478.32;;;-0.13;100.00
34065;BME280;20339;49.754;20.158;2022-11-23T12:55:50;95483.05;;;-0.13;100.00
34065;BME280;20339;49.754;20.158;2022-11-23T12:58:27;95482.44;;;-0.13;100.00
34065;BME280;20339;49.754;20.158;2022-11-23T13:01:01;95482.67;;;-0.14;100.00
34065;BME280;20339;49.754;20.158;2022-11-23T13:03:57;95483.30;;;-0.14;100.00
34065;BME280;20339;49.754;20.158;2022-11-23T13:07:10;95484.65;;;-0.11;100.00
34065;BME280;20339;49.754;20.158;2022-11-23T13:10:08;95488.66;;;-0.10;100.00
34065;BME280;20339;49.754;20.158;2022-11-23T13:13:03;95486.70;;;-0.09;100.00
34065;BME280;20339;49.754;20.158;2022-11-23T13:18:45;95485.24;;;-0.01;100.00
34065;BME280;20339;49.754;20.158;2022-11-23T13:21:25;95480.98;;;0.02;100.00
34065;BME280;20339;49.754;20.158;2022-11-23T13:24:00;95480.52;;;0.02;100.00
34065;BME280;20339;49.754;20.158;2022-11-23T13:26:33;95479.48;;;0.02;100.00
34065;BME280;20339;49.754;20.158;2022-11-23T13:32:52;95484.18;;;-0.02;100.00